sensor_id;sensor_type;location;lat;lon;timestamp;pressure;altitude;pressure_sealevel;temperature;humidity
5413;BME280;2729;50.056;8.678;2022-12-07T00:01:10;100434.50;;;5.74;100.00
5413;BME280;2729;50.056;8.678;2022-12-07T00:03:38;100431.03;;;5.81;100.00
5413;BME280;2729;50.056;8.678;2022-12-07T00:06:06;100424.19;;;5.63;100.00
5413;BME280;2729;50.056;8.678;2022-12-07T00:08:33;100430.19;;;5.77;100.00
5413;BME280;2729;50.056;8.678;2022-12-07T00:11:04;100427.56;;;5.84;100.00
5413;BME280;2729;50.056;8.678;2022-12-07T00:13:31;100421.50;;;5.88;100.00
5413;BME280;2729;50.056;8.678;2022-12-07T00:16:03;100421.53;;;5.81;100.00
5413;BME280;2729;50.056;8.678;2022-12-07T00:18:29;100416.38;;;5.71;100.00
5413;BME280;2729;50.056;8.678;2022-12-07T00:21:03;100411.22;;;5.69;100.00
5413;BME280;2729;50.056;8.678;2022-12-07T00:23:29;100402.63;;;5.58;100.00
5413;BME280;2729;50.056;8.678;2022-12-07T00:25:55;100410.34;;;5.75;100.00
5413;BME280;2729;50.056;8.678;2022-12-07T00:28:22;100404.28;;;5.76;100.00
5413;BME280;2729;50.056;8.678;2022-12-07T00:30:48;100405.13;;;5.84;100.00
5413;BME280;2729;50.056;8.678;2022-12-07T00:33:14;100408.63;;;5.74;100.00
5413;BME280;2729;50.056;8.678;2022-12-07T00:35:40;100398.28;;;5.65;100.00
5413;BME280;2729;50.056;8.678;2022-12-07T00:38:05;100398.22;;;5.89;100.00
5413;BME280;2729;50.056;8.678;2022-12-07T00:40:31;100393.03;;;5.83;100.00
5413;BME280;2729;50.056;8.678;2022-12-07T00:42:57;100389.56;;;5.89;100.00
5413;BME280;2729;50.056;8.678;2022-12-07T00:45:23;100391.31;;;5.85;100.00
5413;BME280;2729;50.056;8.678;2022-12-07T00:47:49;100385.31;;;5.71;100.00
5413;BME280;2729;50.056;8.678;2022-12-07T00:50:15;100390.53;;;5.59;100.00
5413;BME280;2729;50.056;8.678;2022-12-07T00:52:41;100388.78;;;5.71;100.00
5413;BME280;2729;50.056;8.678;2022-12-07T00:55:07;100390.53;;;5.63;100.00
5413;BME280;2729;50.056;8.678;2022-12-07T00:57:33;100387.06;;;5.61;100.00
5413;BME280;2729;50.056;8.678;2022-12-07T00:59:59;100387.91;;;5.74;100.00
5413;BME280;2729;50.056;8.678;2022-12-07T01:02:26;100386.13;;;5.82;100.00
5413;BME280;2729;50.056;8.678;2022-12-07T01:04:52;100385.28;;;5.89;100.00
5413;BME280;2729;50.056;8.678;2022-12-07T01:07:18;100381.88;;;5.70;100.00
5413;BME280;2729;50.056;8.678;2022-12-07T01:09:44;100390.50;;;5.68;100.00
5413;BME280;2729;50.056;8.678;2022-12-07T01:12:10;100390.47;;;5.89;100.00
5413;BME280;2729;50.056;8.678;2022-12-07T01:14:36;100386.19;;;5.70;100.00
5413;BME280;2729;50.056;8.678;2022-12-07T01:17:02;100392.28;;;5.51;100.00
5413;BME280;2729;50.056;8.678;2022-12-07T01:19:27;100390.53;;;5.57;100.00
5413;BME280;2729;50.056;8.678;2022-12-07T01:21:53;100382.75;;;5.68;100.00
5413;BME280;2729;50.056;8.678;2022-12-07T01:24:19;100376.66;;;5.78;100.00
5413;BME280;2729;50.056;8.678;2022-12-07T01:26:48;100368.03;;;5.74;100.00
5413;BME280;2729;50.056;8.678;2022-12-07T01:29:14;100366.28;;;5.81;100.00
5413;BME280;2729;50.056;8.678;2022-12-07T01:31:40;100375.84;;;5.68;100.00
5413;BME280;2729;50.056;8.678;2022-12-07T01:34:10;100372.41;;;5.59;100.00
5413;BME280;2729;50.056;8.678;2022-12-07T01:36:36;100369.81;;;5.66;100.00
5413;BME280;2729;50.056;8.678;2022-12-07T01:39:05;100367.22;;;5.63;100.00
5413;BME280;2729;50.056;8.678;2022-12-07T01:41:33;100371.56;;;5.51;100.00
5413;BME280;2729;50.056;8.678;2022-12-07T01:44:18;100379.34;;;5.44;100.00
5413;BME280;2729;50.056;8.678;2022-12-07T01:52:20;100378.44;;;5.64;100.00
5413;BME280;2729;50.056;8.678;2022-12-07T01:54:44;100375.84;;;5.61;100.00
5413;BME280;2729;50.056;8.678;2022-12-07T01:57:13;100380.22;;;5.48;100.00
5413;BME280;2729;50.056;8.678;2022-12-07T01:59:41;100376.75;;;5.55;100.00
5413;BME280;2729;50.056;8.678;2022-12-07T02:02:16;100372.41;;;5.62;100.00
5413;BME280;2729;50.056;8.678;2022-12-07T02:04:44;100375.81;;;5.77;100.00
5413;BME280;2729;50.056;8.678;2022-12-07T02:07:11;100374.09;;;5.72;100.00
5413;BME280;2729;50.056;8.678;2022-12-07T02:09:37;100370.66;;;5.65;100.00
5413;BME280;2729;50.056;8.678;2022-12-07T02:12:03;100352.53;;;5.71;100.00
5413;BME280;2729;50.056;8.678;2022-12-07T02:14:30;100356.03;;;5.52;100.00
5413;BME280;2729;50.056;8.678;2022-12-07T02:17:08;100349.88;;;5.82;100.00
5413;BME280;2729;50.056;8.678;2022-12-07T02:20:07;100350.78;;;5.73;100.00
5413;BME280;2729;50.056;8.678;2022-12-07T02:22:50;100343.81;;;5.85;100.00
5413;BME280;2729;50.056;8.678;2022-12-07T02:29:05;100349.09;;;5.66;100.00
5413;BME280;2729;50.056;8.678;2022-12-07T02:31:39;100337.78;;;5.84;100.00
5413;BME280;2729;50.056;8.678;2022-12-07T02:34:14;100344.72;;;5.79;100.00
5413;BME280;2729;50.056;8.678;2022-12-07T02:36:49;100344.69;;;5.90;100.00
5413;BME280;2729;50.056;8.678;2022-12-07T02:39:48;100345.59;;;5.78;100.00
5413;BME280;2729;50.056;8.678;2022-12-07T02:42:16;100351.59;;;5.83;100.00
5413;BME280;2729;50.056;8.678;2022-12-07T02:44:45;100333.47;;;5.92;100.00
5413;BME280;2729;50.056;8.678;2022-12-07T02:47:14;100334.34;;;5.91;100.00
5413;BME280;2729;50.056;8.678;2022-12-07T02:49:43;100335.16;;;5.99;100.00
5413;BME280;2729;50.056;8.678;2022-12-07T02:52:09;100336.91;;;5.88;100.00
5413;BME280;2729;50.056;8.678;2022-12-07T02:54:34;100329.97;;;6.01;100.00
5413;BME280;2729;50.056;8.678;2022-12-07T02:57:19;100329.09;;;6.00;100.00
5413;BME280;2729;50.056;8.678;2022-12-07T03:00:01;100334.38;;;5.77;100.00
5413;BME280;2729;50.056;8.678;2022-12-07T03:02:31;100334.34;;;5.90;100.00
5413;BME280;2729;50.056;8.678;2022-12-07T03:10:19;100327.34;;;6.07;100.00
5413;BME280;2729;50.056;8.678;2022-12-07T03:15:38;100329.13;;;5.97;100.00
5413;BME280;2729;50.056;8.678;2022-12-07T03:18:07;100332.63;;;5.90;100.00
5413;BME280;2729;50.056;8.678;2022-12-07T03:20:36;100329.94;;;6.05;100.00
5413;BME280;2729;50.056;8.678;2022-12-07T03:23:05;100326.53;;;5.96;100.00
5413;BME280;2729;50.056;8.678;2022-12-07T03:25:39;100324.91;;;5.73;100.00
5413;BME280;2729;50.056;8.678;2022-12-07T03:28:07;100317.09;;;5.81;100.00
5413;BME280;2729;50.056;8.678;2022-12-07T03:30:43;100312.75;;;5.88;100.00
5413;BME280;2729;50.056;8.678;2022-12-07T03:33:19;100316.22;;;5.90;100.00
5413;BME280;2729;50.056;8.678;2022-12-07T03:35:52;100318.88;;;5.68;100.00
5413;BME280;2729;50.056;8.678;2022-12-07T03:40:52;100313.59;;;5.93;100.00
5413;BME280;2729;50.056;8.678;2022-12-07T03:43:21;100317.16;;;5.66;100.00
5413;BME280;2729;50.056;8.678;2022-12-07T03:46:27;100315.34;;;5.83;100.00
5413;BME280;2729;50.056;8.678;2022-12-07T03:49:00;100307.59;;;5.89;100.00
5413;BME280;2729;50.056;8.678;2022-12-07T03:51:40;100310.25;;;5.65;100.00
5413;BME280;2729;50.056;8.678;2022-12-07T03:54:26;100310.19;;;5.77;100.00
5413;BME280;2729;50.056;8.678;2022-12-07T03:56:54;100304.09;;;5.87;100.00
5413;BME280;2729;50.056;8.678;2022-12-07T03:59:22;100304.09;;;5.95;100.00
5413;BME280;2729;50.056;8.678;2022-12-07T04:01:54;100307.47;;;6.07;100.00
5413;BME280;2729;50.056;8.678;2022-12-07T04:04:23;100313.53;;;6.03;100.00
5413;BME280;2729;50.056;8.678;2022-12-07T04:06:50;100306.69;;;5.93;100.00
5413;BME280;2729;50.056;8.678;2022-12-07T04:09:16;100309.28;;;5.95;100.00
5413;BME280;2729;50.056;8.678;2022-12-07T04:11:43;100313.53;;;6.05;100.00
5413;BME280;2729;50.056;8.678;2022-12-07T04:14:09;100304.03;;;6.07;100.00
5413;BME280;2729;50.056;8.678;2022-12-07T04:16:45;100300.66;;;5.85;100.00
5413;BME280;2729;50.056;8.678;2022-12-07T04:19:12;100310.19;;;5.80;100.00
5413;BME280;2729;50.056;8.678;2022-12-07T04:21:38;100312.88;;;5.59;100.00
5413;BME280;2729;50.056;8.678;2022-12-07T04:24:05;100297.25;;;5.75;100.00
5413;BME280;2729;50.056;8.678;2022-12-07T04:26:31;100308.44;;;5.93;100.00
5413;BME280;2729;50.056;8.678;2022-12-07T04:28:57;100299.78;;;5.95;100.00
5413;BME280;2729;50.056;8.678;2022-12-07T04:31:23;100299.75;;;6.00;100.00
5413;BME280;2729;50.056;8.678;2022-12-07T04:33:49;100309.28;;;5.87;100.00
5413;BME280;2729;50.056;8.678;2022-12-07T04:36:15;100298.94;;;5.82;100.00
5413;BME280;2729;50.056;8.678;2022-12-07T04:38:41;100301.44;;;6.07;100.00
5413;BME280;2729;50.056;8.678;2022-12-07T04:41:08;100298.94;;;5.82;100.00
5413;BME280;2729;50.056;8.678;2022-12-07T04:43:34;100298.94;;;5.86;100.00
5413;BME280;2729;50.056;8.678;2022-12-07T04:46:00;100303.31;;;5.76;100.00
5413;BME280;2729;50.056;8.678;2022-12-07T04:48:27;100305.84;;;5.93;100.00
5413;BME280;2729;50.056;8.678;2022-12-07T04:50:53;100299.81;;;5.83;100.00
5413;BME280;2729;50.056;8.678;2022-12-07T04:53:19;100303.19;;;6.00;100.00
5413;BME280;2729;50.056;8.678;2022-12-07T04:55:45;100299.72;;;6.06;100.00
5413;BME280;2729;50.056;8.678;2022-12-07T04:58:12;100294.47;;;6.13;100.00
5413;BME280;2729;50.056;8.678;2022-12-07T05:00:38;100296.34;;;5.90;100.00
5413;BME280;2729;50.056;8.678;2022-12-07T05:03:04;100294.50;;;6.09;100.00
5413;BME280;2729;50.056;8.678;2022-12-07T05:05:30;100301.34;;;6.19;100.00
5413;BME280;2729;50.056;8.678;2022-12-07T05:07:56;100292.72;;;6.19;100.00
5413;BME280;2729;50.056;8.678;2022-12-07T05:10:22;100300.53;;;6.12;100.00
5413;BME280;2729;50.056;8.678;2022-12-07T05:12:48;100291.06;;;6.08;100.00
5413;BME280;2729;50.056;8.678;2022-12-07T05:15:15;100296.31;;;5.96;100.00
5413;BME280;2729;50.056;8.678;2022-12-07T05:17:41;100299.69;;;6.07;100.00
5413;BME280;2729;50.056;8.678;2022-12-07T05:20:08;100298.03;;;6.00;100.00
5413;BME280;2729;50.056;8.678;2022-12-07T05:22:34;100301.41;;;6.11;100.00
5413;BME280;2729;50.056;8.678;2022-12-07T05:25:00;100293.56;;;6.21;100.00
5413;BME280;2729;50.056;8.678;2022-12-07T05:27:26;100291.88;;;6.15;100.00
5413;BME280;2729;50.056;8.678;2022-12-07T05:29:52;100293.63;;;6.15;100.00
5413;BME280;2729;50.056;8.678;2022-12-07T05:32:18;100292.84;;;6.00;100.00
5413;BME280;2729;50.056;8.678;2022-12-07T05:34:44;100293.72;;;5.99;100.00
5413;BME280;2729;50.056;8.678;2022-12-07T05:37:10;100291.09;;;6.01;100.00
5413;BME280;2729;50.056;8.678;2022-12-07T05:39:36;100291.06;;;6.08;100.00
5413;BME280;2729;50.056;8.678;2022-12-07T05:42:06;100286.00;;;5.84;100.00
5413;BME280;2729;50.056;8.678;2022-12-07T05:44:39;100287.63;;;6.06;100.00
5413;BME280;2729;50.056;8.678;2022-12-07T05:47:05;100291.91;;;6.10;100.00
5413;BME280;2729;50.056;8.678;2022-12-07T05:49:31;100296.28;;;6.01;100.00
5413;BME280;2729;50.056;8.678;2022-12-07T05:51:57;100289.28;;;6.17;100.00
5413;BME280;2729;50.056;8.678;2022-12-07T05:54:23;100290.97;;;6.24;100.00
5413;BME280;2729;50.056;8.678;2022-12-07T05:56:49;100284.97;;;6.17;100.00
5413;BME280;2729;50.056;8.678;2022-12-07T05:59:16;100294.56;;;6.03;100.00
5413;BME280;2729;50.056;8.678;2022-12-07T06:02:00;100290.13;;;6.19;100.00
5413;BME280;2729;50.056;8.678;2022-12-07T06:04:33;100284.94;;;6.19;100.00
5413;BME280;2729;50.056;8.678;2022-12-07T06:06:59;100291.88;;;6.17;100.00
5413;BME280;2729;50.056;8.678;2022-12-07T06:09:26;100285.81;;;6.18;100.00
5413;BME280;2729;50.056;8.678;2022-12-07T06:11:53;100278.91;;;6.18;100.00
5413;BME280;2729;50.056;8.678;2022-12-07T06:14:38;100292.69;;;6.22;100.00
5413;BME280;2729;50.056;8.678;2022-12-07T06:17:04;100294.59;;;5.95;100.00
5413;BME280;2729;50.056;8.678;2022-12-07T06:19:30;100289.50;;;5.77;100.00
5413;BME280;2729;50.056;8.678;2022-12-07T06:21:56;100279.16;;;5.71;100.00
5413;BME280;2729;50.056;8.678;2022-12-07T06:24:23;100285.97;;;5.93;100.00
5413;BME280;2729;50.056;8.678;2022-12-07T06:26:49;100291.09;;;6.02;100.00
5413;BME280;2729;50.056;8.678;2022-12-07T06:29:16;100291.25;;;5.72;100.00
5413;BME280;2729;50.056;8.678;2022-12-07T06:31:42;100298.84;;;6.07;100.00
5413;BME280;2729;50.056;8.678;2022-12-07T06:34:11;100288.53;;;5.99;100.00
5413;BME280;2729;50.056;8.678;2022-12-07T06:36:38;100299.72;;;6.04;100.00
5413;BME280;2729;50.056;8.678;2022-12-07T06:39:04;100294.59;;;5.97;100.00
5413;BME280;2729;50.056;8.678;2022-12-07T06:41:31;100293.53;;;6.27;100.00
5413;BME280;2729;50.056;8.678;2022-12-07T06:43:57;100292.72;;;6.20;100.00
5413;BME280;2729;50.056;8.678;2022-12-07T06:46:23;100297.06;;;6.13;100.00
5413;BME280;2729;50.056;8.678;2022-12-07T06:48:49;100296.31;;;5.95;100.00
5413;BME280;2729;50.056;8.678;2022-12-07T06:51:15;100291.81;;;6.23;100.00
5413;BME280;2729;50.056;8.678;2022-12-07T06:53:41;100293.69;;;6.02;100.00
5413;BME280;2729;50.056;8.678;2022-12-07T06:56:07;100292.84;;;5.97;100.00
5413;BME280;2729;50.056;8.678;2022-12-07T06:58:33;100286.81;;;5.95;100.00
5413;BME280;2729;50.056;8.678;2022-12-07T07:00:59;100297.97;;;6.06;100.00
5413;BME280;2729;50.056;8.678;2022-12-07T07:03:25;100302.38;;;5.95;100.00
5413;BME280;2729;50.056;8.678;2022-12-07T07:05:51;100301.41;;;6.10;100.00
5413;BME280;2729;50.056;8.678;2022-12-07T07:08:17;100301.38;;;6.15;100.00
5413;BME280;2729;50.056;8.678;2022-12-07T07:10:43;100299.63;;;6.20;100.00
5413;BME280;2729;50.056;8.678;2022-12-07T07:13:09;100301.56;;;5.81;100.00
5413;BME280;2729;50.056;8.678;2022-12-07T07:15:37;100313.56;;;6.00;100.00
5413;BME280;2729;50.056;8.678;2022-12-07T07:18:03;100311.03;;;5.84;100.00
5413;BME280;2729;50.056;8.678;2022-12-07T07:20:29;100318.78;;;5.88;100.00
5413;BME280;2729;50.056;8.678;2022-12-07T07:22:55;100316.97;;;6.08;100.00
5413;BME280;2729;50.056;8.678;2022-12-07T07:25:22;100323.00;;;6.12;100.00
5413;BME280;2729;50.056;8.678;2022-12-07T07:27:48;100325.53;;;6.18;100.00
5413;BME280;2729;50.056;8.678;2022-12-07T07:30:14;100323.91;;;6.03;100.00
5413;BME280;2729;50.056;8.678;2022-12-07T07:32:40;100331.72;;;5.94;100.00
5413;BME280;2729;50.056;8.678;2022-12-07T07:35:06;100333.31;;;6.20;100.00
5413;BME280;2729;50.056;8.678;2022-12-07T07:37:32;100334.28;;;6.03;100.00
5413;BME280;2729;50.056;8.678;2022-12-07T07:39:58;100331.53;;;6.28;100.00
5413;BME280;2729;50.056;8.678;2022-12-07T07:42:24;100335.84;;;6.29;100.00
5413;BME280;2729;50.056;8.678;2022-12-07T07:44:49;100330.75;;;6.13;100.00
5413;BME280;2729;50.056;8.678;2022-12-07T07:47:15;100335.13;;;6.02;100.00
5413;BME280;2729;50.056;8.678;2022-12-07T07:49:41;100333.25;;;6.29;100.00
5413;BME280;2729;50.056;8.678;2022-12-07T07:52:07;100335.88;;;6.21;100.00
5413;BME280;2729;50.056;8.678;2022-12-07T07:54:33;100332.56;;;6.02;100.00
5413;BME280;2729;50.056;8.678;2022-12-07T07:56:59;100329.91;;;6.11;100.00
5413;BME280;2729;50.056;8.678;2022-12-07T07:59:28;100337.72;;;6.02;100.00
5413;BME280;2729;50.056;8.678;2022-12-07T08:01:54;100340.28;;;6.07;100.00
5413;BME280;2729;50.056;8.678;2022-12-07T08:04:20;100341.25;;;5.92;100.00
5413;BME280;2729;50.056;8.678;2022-12-07T08:06:46;100339.50;;;5.93;100.00
5413;BME280;2729;50.056;8.678;2022-12-07T08:09:12;100332.56;;;5.99;100.00
5413;BME280;2729;50.056;8.678;2022-12-07T08:11:38;100333.44;;;5.95;100.00
5413;BME280;2729;50.056;8.678;2022-12-07T08:14:04;100325.59;;;6.12;100.00
5413;BME280;2729;50.056;8.678;2022-12-07T08:16:30;100329.16;;;5.90;100.00
5413;BME280;2729;50.056;8.678;2022-12-07T08:18:57;100328.31;;;5.78;100.00
5413;BME280;2729;50.056;8.678;2022-12-07T08:21:23;100334.34;;;5.82;100.00
5413;BME280;2729;50.056;8.678;2022-12-07T08:23:49;100336.13;;;5.71;100.00
5413;BME280;2729;50.056;8.678;2022-12-07T08:26:16;100334.31;;;5.97;100.00
5413;BME280;2729;50.056;8.678;2022-12-07T08:28:42;100330.91;;;5.80;100.00
5413;BME280;2729;50.056;8.678;2022-12-07T08:31:12;100330.03;;;5.79;100.00
5413;BME280;2729;50.056;8.678;2022-12-07T08:33:39;100335.25;;;5.75;100.00
5413;BME280;2729;50.056;8.678;2022-12-07T08:36:08;100329.19;;;5.77;100.00
5413;BME280;2729;50.056;8.678;2022-12-07T08:38:36;100337.06;;;5.55;100.00
5413;BME280;2729;50.056;8.678;2022-12-07T08:41:02;100343.03;;;5.73;100.00
5413;BME280;2729;50.056;8.678;2022-12-07T08:43:29;100339.56;;;5.73;100.00
5413;BME280;2729;50.056;8.678;2022-12-07T08:46:19;100337.78;;;5.84;100.00
5413;BME280;2729;50.056;8.678;2022-12-07T08:48:53;100342.09;;;5.94;100.00
5413;BME280;2729;50.056;8.678;2022-12-07T08:51:21;100341.19;;;6.03;100.00
5413;BME280;2729;50.056;8.678;2022-12-07T08:53:49;100341.25;;;5.92;100.00
5413;BME280;2729;50.056;8.678;2022-12-07T08:56:15;100342.88;;;6.07;100.00
5413;BME280;2729;50.056;8.678;2022-12-07T08:58:42;100344.56;;;6.17;100.00
5413;BME280;2729;50.056;8.678;2022-12-07T09:01:08;100339.28;;;6.29;100.00
5413;BME280;2729;50.056;8.678;2022-12-07T09:03:34;100343.75;;;6.04;100.00
5413;BME280;2729;50.056;8.678;2022-12-07T09:06:00;100336.91;;;5.88;100.00
5413;BME280;2729;50.056;8.678;2022-12-07T09:08:29;100343.72;;;6.10;100.00
5413;BME280;2729;50.056;8.678;2022-12-07T09:10:56;100347.06;;;6.29;100.00
5413;BME280;2729;50.056;8.678;2022-12-07T09:13:22;100342.81;;;6.21;100.00
5413;BME280;2729;50.056;8.678;2022-12-07T09:15:48;100343.69;;;6.15;100.00
5413;BME280;2729;50.056;8.678;2022-12-07T09:18:14;100347.97;;;6.24;100.00
5413;BME280;2729;50.056;8.678;2022-12-07T09:20:40;100344.47;;;6.31;100.00
5413;BME280;2729;50.056;8.678;2022-12-07T09:23:06;100348.78;;;6.33;100.00
5413;BME280;2729;50.056;8.678;2022-12-07T09:25:34;100341.81;;;6.41;100.00
5413;BME280;2729;50.056;8.678;2022-12-07T09:28:00;100339.22;;;6.38;100.00
5413;BME280;2729;50.056;8.678;2022-12-07T09:30:27;100334.78;;;6.54;100.00
5413;BME280;2729;50.056;8.678;2022-12-07T09:32:54;100338.22;;;6.59;100.00
5413;BME280;2729;50.056;8.678;2022-12-07T09:35:21;100346.81;;;6.66;100.00
5413;BME280;2729;50.056;8.678;2022-12-07T09:37:47;100350.97;;;6.84;100.00
5413;BME280;2729;50.056;8.678;2022-12-07T09:40:14;100349.16;;;6.95;100.00
5413;BME280;2729;50.056;8.678;2022-12-07T09:42:52;100337.84;;;7.00;100.00
5413;BME280;2729;50.056;8.678;2022-12-07T09:45:27;100342.72;;;7.32;100.00
5413;BME280;2729;50.056;8.678;2022-12-07T09:47:57;100343.59;;;7.33;100.00
5413;BME280;2729;50.056;8.678;2022-12-07T09:50:25;100340.91;;;7.39;100.00
5413;BME280;2729;50.056;8.678;2022-12-07T09:52:52;100334.81;;;7.45;100.00
5413;BME280;2729;50.056;8.678;2022-12-07T09:55:29;100334.75;;;7.49;100.00
5413;BME280;2729;50.056;8.678;2022-12-07T09:57:57;100329.66;;;7.40;100.00
5413;BME280;2729;50.056;8.678;2022-12-07T10:00:24;100332.59;;;7.09;100.00
5413;BME280;2729;50.056;8.678;2022-12-07T10:03:01;100332.34;;;7.31;100.00
5413;BME280;2729;50.056;8.678;2022-12-07T10:05:32;100325.22;;;7.50;100.00
5413;BME280;2729;50.056;8.678;2022-12-07T10:08:00;100325.06;;;7.63;100.00
5413;BME280;2729;50.056;8.678;2022-12-07T10:10:30;100328.47;;;7.67;100.00
5413;BME280;2729;50.056;8.678;2022-12-07T10:13:03;100317.50;;;7.43;100.00
5413;BME280;2729;50.056;8.678;2022-12-07T10:18:18;100320.00;;;7.51;100.00
5413;BME280;2729;50.056;8.678;2022-12-07T10:20:48;100314.63;;;7.66;100.00
5413;BME280;2729;50.056;8.678;2022-12-07T10:23:17;100313.72;;;7.70;100.00
5413;BME280;2729;50.056;8.678;2022-12-07T10:25:44;100313.84;;;7.60;100.00
5413;BME280;2729;50.056;8.678;2022-12-07T10:28:17;100311.09;;;7.72;100.00
5413;BME280;2729;50.056;8.678;2022-12-07T10:30:56;100300.59;;;7.80;100.00
5413;BME280;2729;50.056;8.678;2022-12-07T10:33:37;100300.59;;;7.83;100.00
5413;BME280;2729;50.056;8.678;2022-12-07T10:36:27;100304.09;;;7.80;100.00
5413;BME280;2729;50.056;8.678;2022-12-07T10:39:15;100296.19;;;7.89;100.00
5413;BME280;2729;50.056;8.678;2022-12-07T10:42:03;100296.47;;;7.65;100.00
5413;BME280;2729;50.056;8.678;2022-12-07T10:44:31;100298.66;;;7.98;100.00
5413;BME280;2729;50.056;8.678;2022-12-07T10:52:48;100295.38;;;7.86;100.00
5413;BME280;2729;50.056;8.678;2022-12-07T10:55:30;100289.34;;;7.79;100.00
5413;BME280;2729;50.056;8.678;2022-12-07T10:58:28;100282.38;;;7.86;100.00
5413;BME280;2729;50.056;8.678;2022-12-07T11:07:15;100275.75;;;8.23;100.00
5413;BME280;2729;50.056;8.678;2022-12-07T11:10:05;100269.06;;;8.09;100.00
5413;BME280;2729;50.056;8.678;2022-12-07T11:12:56;100267.34;;;8.06;100.00
5413;BME280;2729;50.056;8.678;2022-12-07T11:18:27;100261.25;;;8.09;100.00
5413;BME280;2729;50.056;8.678;2022-12-07T11:21:03;100257.28;;;8.43;100.00
5413;BME280;2729;50.056;8.678;2022-12-07T11:23:56;100261.81;;;8.27;100.00
5413;BME280;2729;50.056;8.678;2022-12-07T11:26:46;100253.97;;;8.30;100.00
5413;BME280;2729;50.056;8.678;2022-12-07T11:29:36;100248.47;;;8.50;100.00
5413;BME280;2729;50.056;8.678;2022-12-07T11:37:35;100243.69;;;8.24;100.00
5413;BME280;2729;50.056;8.678;2022-12-07T11:40:31;100238.50;;;8.23;100.00
5413;BME280;2729;50.056;8.678;2022-12-07T11:45:58;100238.44;;;8.26;100.00
5413;BME280;2729;50.056;8.678;2022-12-07T11:51:01;100230.63;;;8.27;100.00
5413;BME280;2729;50.056;8.678;2022-12-07T11:53:35;100229.78;;;8.27;100.00
5413;BME280;2729;50.056;8.678;2022-12-07T11:56:12;100227.88;;;8.38;100.00
5413;BME280;2729;50.056;8.678;2022-12-07T12:06:43;100214.91;;;8.36;100.00
5413;BME280;2729;50.056;8.678;2022-12-07T12:09:17;100205.59;;;8.22;100.00
5413;BME280;2729;50.056;8.678;2022-12-07T12:17:49;100201.97;;;8.33;100.00
5413;BME280;2729;50.056;8.678;2022-12-07T12:20:50;100201.72;;;8.47;100.00
5413;BME280;2729;50.056;8.678;2022-12-07T12:23:22;100200.84;;;8.48;100.00
5413;BME280;2729;50.056;8.678;2022-12-07T12:25:58;100195.75;;;8.41;100.00
5413;BME280;2729;50.056;8.678;2022-12-07T12:28:50;100196.16;;;8.16;100.00
5413;BME280;2729;50.056;8.678;2022-12-07T12:33:50;100184.28;;;8.52;100.00
5413;BME280;2729;50.056;8.678;2022-12-07T12:47:03;100176.53;;;8.49;100.00
5413;BME280;2729;50.056;8.678;2022-12-07T12:49:34;100182.34;;;8.63;100.00
5413;BME280;2729;50.056;8.678;2022-12-07T12:52:45;100177.38;;;8.51;100.00
5413;BME280;2729;50.056;8.678;2022-12-07T12:57:28;100177.66;;;8.82;100.00
5413;BME280;2729;50.056;8.678;2022-12-07T13:21:02;100169.41;;;8.08;100.00
5413;BME280;2729;50.056;8.678;2022-12-07T13:28:52;100169.44;;;8.06;100.00
5413;BME280;2729;50.056;8.678;2022-12-07T13:31:34;100166.00;;;8.04;100.00
5413;BME280;2729;50.056;8.678;2022-12-07T13:34:03;100161.25;;;8.29;100.00
5413;BME280;2729;50.056;8.678;2022-12-07T13:36:39;100160.03;;;7.99;100.00
5413;BME280;2729;50.056;8.678;2022-12-07T13:41:44;100160.50;;;8.23;100.00
5413;BME280;2729;50.056;8.678;2022-12-07T13:44:13;100158.72;;;8.26;100.00
5413;BME280;2729;50.056;8.678;2022-12-07T13:47:06;100156.84;;;8.36;100.00
5413;BME280;2729;50.056;8.678;2022-12-07T13:49:46;100156.78;;;8.39;100.00
5413;BME280;2729;50.056;8.678;2022-12-07T13:52:21;100163.16;;;8.20;100.00
5413;BME280;2729;50.056;8.678;2022-12-07T13:54:54;100157.81;;;8.29;100.00
5413;BME280;2729;50.056;8.678;2022-12-07T13:57:22;100159.19;;;7.97;100.00
5413;BME280;2729;50.056;8.678;2022-12-07T13:59:48;100160.75;;;8.09;100.00
5413;BME280;2729;50.056;8.678;2022-12-07T14:02:20;100162.59;;;8.02;100.00
5413;BME280;2729;50.056;8.678;2022-12-07T14:04:49;100158.22;;;8.04;100.00
5413;BME280;2729;50.056;8.678;2022-12-07T14:07:25;100161.00;;;7.94;100.00
5413;BME280;2729;50.056;8.678;2022-12-07T14:10:04;100162.06;;;7.79;100.00
5413;BME280;2729;50.056;8.678;2022-12-07T14:12:31;100151.47;;;7.93;100.00
5413;BME280;2729;50.056;8.678;2022-12-07T14:14:59;100155.72;;;7.98;100.00
5413;BME280;2729;50.056;8.678;2022-12-07T14:17:29;100152.38;;;7.90;100.00
5413;BME280;2729;50.056;8.678;2022-12-07T14:19:56;100153.16;;;7.95;100.00
5413;BME280;2729;50.056;8.678;2022-12-07T14:22:26;100146.13;;;8.02;100.00
5413;BME280;2729;50.056;8.678;2022-12-07T14:25:25;100151.25;;;8.06;100.00
5413;BME280;2729;50.056;8.678;2022-12-07T14:30:22;100155.31;;;8.23;100.00
5413;BME280;2729;50.056;8.678;2022-12-07T14:32:54;100155.00;;;7.90;100.00
5413;BME280;2729;50.056;8.678;2022-12-07T14:35:20;100157.44;;;7.99;100.00
5413;BME280;2729;50.056;8.678;2022-12-07T14:37:48;100158.91;;;8.14;100.00
5413;BME280;2729;50.056;8.678;2022-12-07T14:40:22;100154.44;;;8.22;100.00
5413;BME280;2729;50.056;8.678;2022-12-07T14:42:51;100154.72;;;8.07;100.00
5413;BME280;2729;50.056;8.678;2022-12-07T14:45:21;100154.06;;;7.94;100.00
5413;BME280;2729;50.056;8.678;2022-12-07T14:47:47;100156.22;;;7.65;100.00
5413;BME280;2729;50.056;8.678;2022-12-07T14:50:18;100160.41;;;7.73;100.00
5413;BME280;2729;50.056;8.678;2022-12-07T14:52:49;100163.81;;;7.80;100.00
5413;BME280;2729;50.056;8.678;2022-12-07T14:55:23;100151.94;;;7.62;100.00
5413;BME280;2729;50.056;8.678;2022-12-07T14:57:50;100161.53;;;7.57;100.00
5413;BME280;2729;50.056;8.678;2022-12-07T15:00:17;100153.72;;;7.57;100.00
5413;BME280;2729;50.056;8.678;2022-12-07T15:02:44;100155.59;;;7.48;100.00
5413;BME280;2729;50.056;8.678;2022-12-07T15:05:11;100155.75;;;7.37;100.00
5413;BME280;2729;50.056;8.678;2022-12-07T15:07:37;100167.13;;;7.27;100.00
5413;BME280;2729;50.056;8.678;2022-12-07T15:10:03;100157.69;;;7.23;100.00
5413;BME280;2729;50.056;8.678;2022-12-07T15:12:30;100161.13;;;7.25;100.00
5413;BME280;2729;50.056;8.678;2022-12-07T15:14:55;100162.06;;;7.19;100.00